sensor_id;sensor_type;location;lat;lon;timestamp;pressure;altitude;pressure_sealevel;temperature;humidity
17521;BME280;8878;-33.370;-70.552;2023-04-26T00:00:29;92105.59;;;21.75;45.53
17521;BME280;8878;-33.370;-70.552;2023-04-26T00:03:00;92106.81;;;21.77;45.86
17521;BME280;8878;-33.370;-70.552;2023-04-26T00:05:29;92106.16;;;21.80;46.25
17521;BME280;8878;-33.370;-70.552;2023-04-26T00:08:00;92095.44;;;21.80;46.81
17521;BME280;8878;-33.370;-70.552;2023-04-26T00:10:30;92108.06;;;21.80;46.61
17521;BME280;8878;-33.370;-70.552;2023-04-26T00:12:59;92099.00;;;21.84;46.53
17521;BME280;8878;-33.370;-70.552;2023-04-26T00:15:29;92098.22;;;21.84;45.79
17521;BME280;8878;-33.370;-70.552;2023-04-26T00:17:58;92101.25;;;21.95;45.17
17521;BME280;8878;-33.370;-70.552;2023-04-26T00:20:28;92107.16;;;21.76;46.32
17521;BME280;8878;-33.370;-70.552;2023-04-26T00:22:57;92104.56;;;21.67;44.71
17521;BME280;8878;-33.370;-70.552;2023-04-26T00:25:28;92109.06;;;21.63;43.48
17521;BME280;8878;-33.370;-70.552;2023-04-26T00:27:58;92106.69;;;21.62;44.38
17521;BME280;8878;-33.370;-70.552;2023-04-26T00:30:28;92106.81;;;21.65;43.77
17521;BME280;8878;-33.370;-70.552;2023-04-26T00:32:58;92113.41;;;21.56;43.95
17521;BME280;8878;-33.370;-70.552;2023-04-26T00:35:27;92108.59;;;21.49;44.01
17521;BME280;8878;-33.370;-70.552;2023-04-26T00:37:57;92107.78;;;21.48;45.59
17521;BME280;8878;-33.370;-70.552;2023-04-26T00:40:28;92112.94;;;21.41;46.13
17521;BME280;8878;-33.370;-70.552;2023-04-26T00:42:58;92104.31;;;21.48;45.34
17521;BME280;8878;-33.370;-70.552;2023-04-26T00:45:29;92110.25;;;21.54;44.91
17521;BME280;8878;-33.370;-70.552;2023-04-26T00:48:01;92108.72;;;21.53;44.96
17521;BME280;8878;-33.370;-70.552;2023-04-26T00:50:30;92109.91;;;21.43;45.94
17521;BME280;8878;-33.370;-70.552;2023-04-26T00:53:02;92115.69;;;21.33;45.81
17521;BME280;8878;-33.370;-70.552;2023-04-26T00:55:33;92120.28;;;21.32;45.80
17521;BME280;8878;-33.370;-70.552;2023-04-26T00:58:03;92127.91;;;21.30;45.75
17521;BME280;8878;-33.370;-70.552;2023-04-26T01:00:32;92132.81;;;21.28;45.12
17521;BME280;8878;-33.370;-70.552;2023-04-26T01:03:02;92145.66;;;21.23;46.09
17521;BME280;8878;-33.370;-70.552;2023-04-26T01:05:32;92139.09;;;21.11;46.15
17521;BME280;8878;-33.370;-70.552;2023-04-26T01:08:02;92150.91;;;21.10;46.35
17521;BME280;8878;-33.370;-70.552;2023-04-26T01:10:34;92151.59;;;21.07;46.67
17521;BME280;8878;-33.370;-70.552;2023-04-26T01:13:04;92158.53;;;21.08;46.26
17521;BME280;8878;-33.370;-70.552;2023-04-26T01:15:34;92156.03;;;21.03;45.84
17521;BME280;8878;-33.370;-70.552;2023-04-26T01:18:04;92147.13;;;21.11;46.20
17521;BME280;8878;-33.370;-70.552;2023-04-26T01:20:34;92144.28;;;21.17;46.30
17521;BME280;8878;-33.370;-70.552;2023-04-26T01:23:05;92151.56;;;21.16;45.28
17521;BME280;8878;-33.370;-70.552;2023-04-26T01:25:35;92162.91;;;21.13;46.29
17521;BME280;8878;-33.370;-70.552;2023-04-26T01:28:05;92168.72;;;21.15;46.39
17521;BME280;8878;-33.370;-70.552;2023-04-26T01:30:35;92166.97;;;21.19;46.95
17521;BME280;8878;-33.370;-70.552;2023-04-26T01:33:04;92159.19;;;20.85;47.78
17521;BME280;8878;-33.370;-70.552;2023-04-26T01:35:33;92160.53;;;20.58;48.20
17521;BME280;8878;-33.370;-70.552;2023-04-26T01:38:04;92156.31;;;20.48;48.09
17521;BME280;8878;-33.370;-70.552;2023-04-26T01:40:34;92163.66;;;20.30;48.90
17521;BME280;8878;-33.370;-70.552;2023-04-26T01:43:03;92173.44;;;20.35;48.56
17521;BME280;8878;-33.370;-70.552;2023-04-26T01:45:32;92177.28;;;20.17;47.76
17521;BME280;8878;-33.370;-70.552;2023-04-26T01:48:02;92180.00;;;20.08;48.19
17521;BME280;8878;-33.370;-70.552;2023-04-26T01:50:31;92171.16;;;20.16;48.14
17521;BME280;8878;-33.370;-70.552;2023-04-26T01:53:01;92167.69;;;20.16;47.85
17521;BME280;8878;-33.370;-70.552;2023-04-26T01:55:33;92164.97;;;20.24;47.66
17521;BME280;8878;-33.370;-70.552;2023-04-26T01:58:03;92155.53;;;20.18;48.12
17521;BME280;8878;-33.370;-70.552;2023-04-26T02:00:33;92158.19;;;20.18;48.97
17521;BME280;8878;-33.370;-70.552;2023-04-26T02:03:02;92180.53;;;20.02;48.26
17521;BME280;8878;-33.370;-70.552;2023-04-26T02:05:32;92179.44;;;19.94;49.26
17521;BME280;8878;-33.370;-70.552;2023-04-26T02:08:01;92166.94;;;20.07;48.58
17521;BME280;8878;-33.370;-70.552;2023-04-26T02:10:32;92166.97;;;20.27;47.90
17521;BME280;8878;-33.370;-70.552;2023-04-26T02:13:02;92153.25;;;20.38;47.22
17521;BME280;8878;-33.370;-70.552;2023-04-26T02:15:32;92162.19;;;20.42;47.36
17521;BME280;8878;-33.370;-70.552;2023-04-26T02:18:01;92163.84;;;20.25;47.48
17521;BME280;8878;-33.370;-70.552;2023-04-26T02:20:32;92156.16;;;20.24;47.49
17521;BME280;8878;-33.370;-70.552;2023-04-26T02:23:02;92144.91;;;20.30;47.63
17521;BME280;8878;-33.370;-70.552;2023-04-26T02:25:33;92135.56;;;20.45;47.31
17521;BME280;8878;-33.370;-70.552;2023-04-26T02:28:03;92138.28;;;20.37;47.68
17521;BME280;8878;-33.370;-70.552;2023-04-26T02:30:33;92134.38;;;20.25;47.15
17521;BME280;8878;-33.370;-70.552;2023-04-26T02:33:03;92142.19;;;20.39;46.37
17521;BME280;8878;-33.370;-70.552;2023-04-26T02:35:33;92142.13;;;20.48;46.23
17521;BME280;8878;-33.370;-70.552;2023-04-26T02:38:02;92154.94;;;20.42;45.90
17521;BME280;8878;-33.370;-70.552;2023-04-26T02:40:33;92148.22;;;20.57;45.14
17521;BME280;8878;-33.370;-70.552;2023-04-26T02:43:02;92148.34;;;20.40;45.15
17521;BME280;8878;-33.370;-70.552;2023-04-26T02:45:32;92152.00;;;20.56;44.98
17521;BME280;8878;-33.370;-70.552;2023-04-26T02:48:01;92146.97;;;20.54;44.87
17521;BME280;8878;-33.370;-70.552;2023-04-26T02:50:31;92138.34;;;20.49;45.13
17521;BME280;8878;-33.370;-70.552;2023-04-26T02:53:00;92136.97;;;20.13;45.54
17521;BME280;8878;-33.370;-70.552;2023-04-26T02:55:30;92137.72;;;20.22;45.29
17521;BME280;8878;-33.370;-70.552;2023-04-26T02:58:01;92141.97;;;20.23;46.99
17521;BME280;8878;-33.370;-70.552;2023-04-26T03:00:30;92139.13;;;20.20;47.29
17521;BME280;8878;-33.370;-70.552;2023-04-26T03:03:00;92144.09;;;20.09;47.04
17521;BME280;8878;-33.370;-70.552;2023-04-26T03:05:30;92141.31;;;19.97;47.01
17521;BME280;8878;-33.370;-70.552;2023-04-26T03:07:59;92134.97;;;20.10;46.79
17521;BME280;8878;-33.370;-70.552;2023-04-26T03:10:29;92142.56;;;20.29;46.83
17521;BME280;8878;-33.370;-70.552;2023-04-26T03:13:01;92146.03;;;20.29;47.36
17521;BME280;8878;-33.370;-70.552;2023-04-26T03:15:30;92149.63;;;20.33;46.82
17521;BME280;8878;-33.370;-70.552;2023-04-26T03:17:59;92139.84;;;20.38;45.67
17521;BME280;8878;-33.370;-70.552;2023-04-26T03:20:29;92133.47;;;20.21;45.58
17521;BME280;8878;-33.370;-70.552;2023-04-26T03:22:59;92129.22;;;20.20;45.81
17521;BME280;8878;-33.370;-70.552;2023-04-26T03:25:29;92134.56;;;20.20;45.74
17521;BME280;8878;-33.370;-70.552;2023-04-26T03:28:00;92134.38;;;20.25;47.64
17521;BME280;8878;-33.370;-70.552;2023-04-26T03:30:30;92152.47;;;20.28;46.66
17521;BME280;8878;-33.370;-70.552;2023-04-26T03:32:59;92152.94;;;20.30;47.74
17521;BME280;8878;-33.370;-70.552;2023-04-26T03:35:31;92152.72;;;20.15;48.55
17521;BME280;8878;-33.370;-70.552;2023-04-26T03:38:01;92157.84;;;19.99;48.96
17521;BME280;8878;-33.370;-70.552;2023-04-26T03:40:30;92158.03;;;19.94;47.89
17521;BME280;8878;-33.370;-70.552;2023-04-26T03:43:05;92151.13;;;19.84;47.87
17521;BME280;8878;-33.370;-70.552;2023-04-26T03:45:35;92148.69;;;19.71;47.77
17521;BME280;8878;-33.370;-70.552;2023-04-26T03:48:05;92134.47;;;19.79;47.39
17521;BME280;8878;-33.370;-70.552;2023-04-26T03:50:34;92136.00;;;19.88;47.04
17521;BME280;8878;-33.370;-70.552;2023-04-26T03:53:03;92144.19;;;19.92;48.20
17521;BME280;8878;-33.370;-70.552;2023-04-26T03:55:33;92142.75;;;19.94;48.49
17521;BME280;8878;-33.370;-70.552;2023-04-26T03:58:04;92151.88;;;19.93;47.82
17521;BME280;8878;-33.370;-70.552;2023-04-26T04:00:36;92160.78;;;19.77;48.47
17521;BME280;8878;-33.370;-70.552;2023-04-26T04:03:06;92166.78;;;19.74;48.06
17521;BME280;8878;-33.370;-70.552;2023-04-26T04:05:36;92157.19;;;19.73;48.22
17521;BME280;8878;-33.370;-70.552;2023-04-26T04:08:05;92161.09;;;19.75;47.95
17521;BME280;8878;-33.370;-70.552;2023-04-26T04:10:38;92154.88;;;19.92;47.73
17521;BME280;8878;-33.370;-70.552;2023-04-26T04:13:10;92153.44;;;20.03;47.50
17521;BME280;8878;-33.370;-70.552;2023-04-26T04:15:40;92159.88;;;20.02;47.79
17521;BME280;8878;-33.370;-70.552;2023-04-26T04:18:10;92168.34;;;20.04;47.79
17521;BME280;8878;-33.370;-70.552;2023-04-26T04:20:41;92177.97;;;20.05;47.33
17521;BME280;8878;-33.370;-70.552;2023-04-26T04:23:11;92177.84;;;20.02;47.89
17521;BME280;8878;-33.370;-70.552;2023-04-26T04:25:44;92167.66;;;19.86;48.76
17521;BME280;8878;-33.370;-70.552;2023-04-26T04:28:19;92165.81;;;19.78;48.58
17521;BME280;8878;-33.370;-70.552;2023-04-26T04:30:49;92159.03;;;19.81;48.15
17521;BME280;8878;-33.370;-70.552;2023-04-26T04:33:19;92159.44;;;19.91;48.55
17521;BME280;8878;-33.370;-70.552;2023-04-26T04:35:49;92158.38;;;19.84;49.85
17521;BME280;8878;-33.370;-70.552;2023-04-26T04:38:19;92154.88;;;19.54;49.92
17521;BME280;8878;-33.370;-70.552;2023-04-26T04:40:48;92156.13;;;19.57;48.84
17521;BME280;8878;-33.370;-70.552;2023-04-26T04:43:19;92141.47;;;19.63;48.41
17521;BME280;8878;-33.370;-70.552;2023-04-26T04:45:49;92123.72;;;19.49;48.35
17521;BME280;8878;-33.370;-70.552;2023-04-26T04:48:18;92113.97;;;19.53;48.12
17521;BME280;8878;-33.370;-70.552;2023-04-26T04:50:49;92121.34;;;19.57;48.32
17521;BME280;8878;-33.370;-70.552;2023-04-26T04:53:18;92120.44;;;19.35;48.35
17521;BME280;8878;-33.370;-70.552;2023-04-26T04:55:48;92103.75;;;19.38;48.09
17521;BME280;8878;-33.370;-70.552;2023-04-26T04:58:19;92094.44;;;19.53;47.59
17521;BME280;8878;-33.370;-70.552;2023-04-26T05:00:48;92095.75;;;19.76;47.06
17521;BME280;8878;-33.370;-70.552;2023-04-26T05:03:19;92086.47;;;19.74;46.89
17521;BME280;8878;-33.370;-70.552;2023-04-26T05:05:49;92103.09;;;19.88;46.33
17521;BME280;8878;-33.370;-70.552;2023-04-26T05:08:18;92100.22;;;19.93;46.06
17521;BME280;8878;-33.370;-70.552;2023-04-26T05:10:48;92109.97;;;19.98;45.67
17521;BME280;8878;-33.370;-70.552;2023-04-26T05:13:19;92093.53;;;20.08;45.39
17521;BME280;8878;-33.370;-70.552;2023-04-26T05:15:48;92108.81;;;20.07;45.05
17521;BME280;8878;-33.370;-70.552;2023-04-26T05:18:18;92116.56;;;20.00;44.73
17521;BME280;8878;-33.370;-70.552;2023-04-26T05:20:47;92119.06;;;20.05;44.64
17521;BME280;8878;-33.370;-70.552;2023-04-26T05:23:17;92120.13;;;20.13;44.23
17521;BME280;8878;-33.370;-70.552;2023-04-26T05:25:46;92119.06;;;20.05;44.69
17521;BME280;8878;-33.370;-70.552;2023-04-26T05:28:16;92117.03;;;20.02;45.19
17521;BME280;8878;-33.370;-70.552;2023-04-26T05:30:47;92104.16;;;19.96;45.69
17521;BME280;8878;-33.370;-70.552;2023-04-26T05:33:16;92098.81;;;19.96;45.57
17521;BME280;8878;-33.370;-70.552;2023-04-26T05:35:46;92098.25;;;19.81;46.43
17521;BME280;8878;-33.370;-70.552;2023-04-26T05:38:15;92088.00;;;19.83;46.83
17521;BME280;8878;-33.370;-70.552;2023-04-26T05:40:45;92090.72;;;19.75;48.02
17521;BME280;8878;-33.370;-70.552;2023-04-26T05:43:15;92085.22;;;19.71;47.74
17521;BME280;8878;-33.370;-70.552;2023-04-26T05:45:52;92095.69;;;19.85;47.06
17521;BME280;8878;-33.370;-70.552;2023-04-26T05:48:22;92099.16;;;19.85;47.27
17521;BME280;8878;-33.370;-70.552;2023-04-26T05:50:52;92102.81;;;19.81;46.37
17521;BME280;8878;-33.370;-70.552;2023-04-26T05:53:24;92099.19;;;19.77;45.36
17521;BME280;8878;-33.370;-70.552;2023-04-26T05:55:54;92099.81;;;19.82;44.95
17521;BME280;8878;-33.370;-70.552;2023-04-26T05:58:23;92087.47;;;19.90;44.86
17521;BME280;8878;-33.370;-70.552;2023-04-26T06:00:55;92086.84;;;19.93;45.05
17521;BME280;8878;-33.370;-70.552;2023-04-26T06:03:24;92078.66;;;19.89;45.22
17521;BME280;8878;-33.370;-70.552;2023-04-26T06:05:55;92075.31;;;19.72;45.75
17521;BME280;8878;-33.370;-70.552;2023-04-26T06:08:24;92076.28;;;19.67;45.23
17521;BME280;8878;-33.370;-70.552;2023-04-26T06:10:54;92084.91;;;19.73;45.01
17521;BME280;8878;-33.370;-70.552;2023-04-26T06:13:23;92072.97;;;19.91;44.70
17521;BME280;8878;-33.370;-70.552;2023-04-26T06:15:55;92072.16;;;19.99;44.43
17521;BME280;8878;-33.370;-70.552;2023-04-26T06:18:24;92063.22;;;19.95;44.29
17521;BME280;8878;-33.370;-70.552;2023-04-26T06:20:53;92060.91;;;19.85;45.06
17521;BME280;8878;-33.370;-70.552;2023-04-26T06:23:23;92051.69;;;19.74;45.79
17521;BME280;8878;-33.370;-70.552;2023-04-26T06:25:52;92042.28;;;19.68;45.95
17521;BME280;8878;-33.370;-70.552;2023-04-26T06:28:21;92032.22;;;19.65;45.18
17521;BME280;8878;-33.370;-70.552;2023-04-26T06:30:51;92026.84;;;19.65;45.70
17521;BME280;8878;-33.370;-70.552;2023-04-26T06:33:22;92022.88;;;19.71;45.95
17521;BME280;8878;-33.370;-70.552;2023-04-26T06:35:51;92023.81;;;19.75;45.32
17521;BME280;8878;-33.370;-70.552;2023-04-26T06:38:20;92019.72;;;19.69;45.78
17521;BME280;8878;-33.370;-70.552;2023-04-26T06:40:50;92016.19;;;19.56;44.19
17521;BME280;8878;-33.370;-70.552;2023-04-26T06:43:19;92016.19;;;19.56;44.27
17521;BME280;8878;-33.370;-70.552;2023-04-26T06:45:49;92024.38;;;19.60;43.87
17521;BME280;8878;-33.370;-70.552;2023-04-26T06:48:18;92023.28;;;19.61;42.35
17521;BME280;8878;-33.370;-70.552;2023-04-26T06:50:49;92026.81;;;19.73;42.10
17521;BME280;8878;-33.370;-70.552;2023-04-26T06:53:19;92025.19;;;19.81;42.67
17521;BME280;8878;-33.370;-70.552;2023-04-26T06:55:49;92026.75;;;19.82;42.63
17521;BME280;8878;-33.370;-70.552;2023-04-26T06:58:19;92020.63;;;19.81;42.21
17521;BME280;8878;-33.370;-70.552;2023-04-26T07:00:48;92017.28;;;19.84;43.94
17521;BME280;8878;-33.370;-70.552;2023-04-26T07:03:18;92003.00;;;20.01;42.94
17521;BME280;8878;-33.370;-70.552;2023-04-26T07:05:49;92005.09;;;20.16;42.11
17521;BME280;8878;-33.370;-70.552;2023-04-26T07:08:19;92009.84;;;20.11;41.52
17521;BME280;8878;-33.370;-70.552;2023-04-26T07:10:48;92014.69;;;20.17;41.78
17521;BME280;8878;-33.370;-70.552;2023-04-26T07:13:18;92011.03;;;20.22;42.63
17521;BME280;8878;-33.370;-70.552;2023-04-26T07:15:48;92009.84;;;19.90;42.24
17521;BME280;8878;-33.370;-70.552;2023-04-26T07:18:18;92020.22;;;20.12;43.70
17521;BME280;8878;-33.370;-70.552;2023-04-26T07:20:49;92028.66;;;20.02;43.19
17521;BME280;8878;-33.370;-70.552;2023-04-26T07:23:18;92023.16;;;19.78;42.19
17521;BME280;8878;-33.370;-70.552;2023-04-26T07:25:48;92015.28;;;20.02;42.07
17521;BME280;8878;-33.370;-70.552;2023-04-26T07:28:17;92023.13;;;20.07;42.14
17521;BME280;8878;-33.370;-70.552;2023-04-26T07:30:47;92015.66;;;19.92;42.21
17521;BME280;8878;-33.370;-70.552;2023-04-26T07:33:16;92016.44;;;19.72;42.56
17521;BME280;8878;-33.370;-70.552;2023-04-26T07:35:54;92020.19;;;19.71;42.19
17521;BME280;8878;-33.370;-70.552;2023-04-26T07:38:25;92012.91;;;19.80;42.58
17521;BME280;8878;-33.370;-70.552;2023-04-26T07:40:55;92014.66;;;19.76;43.70
17521;BME280;8878;-33.370;-70.552;2023-04-26T07:43:24;92014.72;;;19.67;42.70
17521;BME280;8878;-33.370;-70.552;2023-04-26T07:45:54;92018.00;;;19.73;43.25
17521;BME280;8878;-33.370;-70.552;2023-04-26T07:48:23;92028.31;;;19.83;43.61
17521;BME280;8878;-33.370;-70.552;2023-04-26T07:50:54;92021.94;;;19.96;43.53
17521;BME280;8878;-33.370;-70.552;2023-04-26T07:53:24;92028.41;;;19.95;44.00
17521;BME280;8878;-33.370;-70.552;2023-04-26T07:55:53;92016.59;;;19.96;43.78
17521;BME280;8878;-33.370;-70.552;2023-04-26T07:58:22;92023.34;;;19.73;44.30
17521;BME280;8878;-33.370;-70.552;2023-04-26T08:00:52;92018.47;;;19.75;44.83
17521;BME280;8878;-33.370;-70.552;2023-04-26T08:03:22;92025.47;;;19.88;45.24
17521;BME280;8878;-33.370;-70.552;2023-04-26T08:05:54;92025.19;;;19.81;47.04
17521;BME280;8878;-33.370;-70.552;2023-04-26T08:08:25;92022.50;;;19.81;47.33
17521;BME280;8878;-33.370;-70.552;2023-04-26T08:10:55;92023.03;;;19.74;47.32
17521;BME280;8878;-33.370;-70.552;2023-04-26T08:13:24;92026.31;;;19.50;47.26
17521;BME280;8878;-33.370;-70.552;2023-04-26T08:15:53;92018.09;;;19.55;47.52
17521;BME280;8878;-33.370;-70.552;2023-04-26T08:18:23;92028.28;;;19.62;47.58
17521;BME280;8878;-33.370;-70.552;2023-04-26T08:20:54;92027.50;;;19.62;47.34
17521;BME280;8878;-33.370;-70.552;2023-04-26T08:23:24;92026.44;;;19.54;47.70
17521;BME280;8878;-33.370;-70.552;2023-04-26T08:25:55;92021.41;;;19.52;47.07
17521;BME280;8878;-33.370;-70.552;2023-04-26T08:28:24;92024.56;;;19.46;47.51
17521;BME280;8878;-33.370;-70.552;2023-04-26T08:30:53;92024.63;;;19.37;47.23
17521;BME280;8878;-33.370;-70.552;2023-04-26T08:33:23;92024.09;;;19.52;46.34
17521;BME280;8878;-33.370;-70.552;2023-04-26T08:35:54;92030.44;;;19.69;45.74
17521;BME280;8878;-33.370;-70.552;2023-04-26T08:38:23;92039.88;;;19.75;45.56
17521;BME280;8878;-33.370;-70.552;2023-04-26T08:40:55;92036.13;;;19.67;45.76
17521;BME280;8878;-33.370;-70.552;2023-04-26T08:43:28;92039.78;;;19.63;46.26
17521;BME280;8878;-33.370;-70.552;2023-04-26T08:45:58;92042.44;;;19.63;46.27
17521;BME280;8878;-33.370;-70.552;2023-04-26T08:48:32;92046.91;;;19.50;46.36
17521;BME280;8878;-33.370;-70.552;2023-04-26T08:51:07;92045.66;;;19.47;46.45
17521;BME280;8878;-33.370;-70.552;2023-04-26T08:53:41;92052.44;;;19.45;46.43
17521;BME280;8878;-33.370;-70.552;2023-04-26T08:56:12;92046.59;;;19.51;46.88
17521;BME280;8878;-33.370;-70.552;2023-04-26T08:58:42;92047.84;;;19.54;46.90
17521;BME280;8878;-33.370;-70.552;2023-04-26T09:01:13;92047.84;;;19.54;47.07
17521;BME280;8878;-33.370;-70.552;2023-04-26T09:03:43;92046.13;;;19.49;47.62
17521;BME280;8878;-33.370;-70.552;2023-04-26T09:06:14;92043.47;;;19.49;46.49
17521;BME280;8878;-33.370;-70.552;2023-04-26T09:08:45;92038.38;;;19.57;47.08
17521;BME280;8878;-33.370;-70.552;2023-04-26T09:11:14;92037.47;;;19.52;45.67
17521;BME280;8878;-33.370;-70.552;2023-04-26T09:13:44;92040.72;;;19.67;45.83
17521;BME280;8878;-33.370;-70.552;2023-04-26T09:16:13;92040.44;;;19.60;44.70
17521;BME280;8878;-33.370;-70.552;2023-04-26T09:18:48;92043.81;;;19.69;44.27
17521;BME280;8878;-33.370;-70.552;2023-04-26T09:21:23;92040.97;;;19.74;43.81
17521;BME280;8878;-33.370;-70.552;2023-04-26T09:24:00;92045.94;;;19.84;43.75
17521;BME280;8878;-33.370;-70.552;2023-04-26T09:26:32;92047.91;;;19.75;43.82
17521;BME280;8878;-33.370;-70.552;2023-04-26T09:29:12;92046.09;;;19.87;43.94
17521;BME280;8878;-33.370;-70.552;2023-04-26T09:31:42;92049.34;;;19.93;44.76
17521;BME280;8878;-33.370;-70.552;2023-04-26T09:34:13;92045.09;;;19.92;44.93
17521;BME280;8878;-33.370;-70.552;2023-04-26T09:36:51;92047.50;;;19.85;45.94
17521;BME280;8878;-33.370;-70.552;2023-04-26T09:39:32;92035.44;;;19.79;46.23
17521;BME280;8878;-33.370;-70.552;2023-04-26T09:42:03;92044.47;;;19.66;45.67
17521;BME280;8878;-33.370;-70.552;2023-04-26T09:44:33;92034.38;;;19.71;45.65
17521;BME280;8878;-33.370;-70.552;2023-04-26T09:47:04;92033.50;;;19.59;44.85
17521;BME280;8878;-33.370;-70.552;2023-04-26T09:49:44;92037.41;;;19.61;43.35
17521;BME280;8878;-33.370;-70.552;2023-04-26T09:52:16;92027.44;;;19.70;43.24
17521;BME280;8878;-33.370;-70.552;2023-04-26T09:54:46;92043.53;;;19.91;42.78
17521;BME280;8878;-33.370;-70.552;2023-04-26T09:57:18;92035.91;;;20.02;42.17
17521;BME280;8878;-33.370;-70.552;2023-04-26T09:59:48;92044.28;;;20.00;41.76
17521;BME280;8878;-33.370;-70.552;2023-04-26T10:02:20;92042.84;;;20.03;41.91
17521;BME280;8878;-33.370;-70.552;2023-04-26T10:04:50;92033.69;;;20.04;42.43
17521;BME280;8878;-33.370;-70.552;2023-04-26T10:07:22;92037.75;;;19.89;43.26
17521;BME280;8878;-33.370;-70.552;2023-04-26T10:09:53;92047.50;;;19.85;42.98
17521;BME280;8878;-33.370;-70.552;2023-04-26T10:12:23;92047.91;;;19.75;42.82
17521;BME280;8878;-33.370;-70.552;2023-04-26T10:14:52;92048.47;;;19.60;43.13
17521;BME280;8878;-33.370;-70.552;2023-04-26T10:17:22;92050.22;;;19.76;43.06
17521;BME280;8878;-33.370;-70.552;2023-04-26T10:19:54;92056.91;;;19.91;43.15
17521;BME280;8878;-33.370;-70.552;2023-04-26T10:22:30;92064.94;;;19.62;41.40
17521;BME280;8878;-33.370;-70.552;2023-04-26T10:25:01;92064.88;;;19.79;42.56
17521;BME280;8878;-33.370;-70.552;2023-04-26T10:27:50;92070.19;;;19.87;43.29
17521;BME280;8878;-33.370;-70.552;2023-04-26T10:30:21;92064.03;;;19.87;43.36
17521;BME280;8878;-33.370;-70.552;2023-04-26T10:36:01;92055.75;;;19.80;43.91
17521;BME280;8878;-33.370;-70.552;2023-04-26T10:38:33;92052.31;;;19.71;45.85
17521;BME280;8878;-33.370;-70.552;2023-04-26T10:41:28;92046.72;;;19.55;46.95
17521;BME280;8878;-33.370;-70.552;2023-04-26T10:44:36;92057.50;;;19.46;46.47
17521;BME280;8878;-33.370;-70.552;2023-04-26T10:47:10;92060.91;;;19.55;46.13
17521;BME280;8878;-33.370;-70.552;2023-04-26T10:49:49;92067.00;;;19.65;45.09
17521;BME280;8878;-33.370;-70.552;2023-04-26T10:52:19;92073.69;;;19.50;46.04
17521;BME280;8878;-33.370;-70.552;2023-04-26T10:54:54;92081.88;;;19.45;45.85
17521;BME280;8878;-33.370;-70.552;2023-04-26T10:57:50;92068.97;;;19.47;45.60
17521;BME280;8878;-33.370;-70.552;2023-04-26T11:00:30;92080.78;;;19.37;47.05
17521;BME280;8878;-33.370;-70.552;2023-04-26T11:03:05;92066.84;;;19.14;47.21
17521;BME280;8878;-33.370;-70.552;2023-04-26T11:05:36;92076.28;;;19.12;47.00
17521;BME280;8878;-33.370;-70.552;2023-04-26T11:08:14;92074.97;;;18.89;46.73
17521;BME280;8878;-33.370;-70.552;2023-04-26T11:10:50;92078.59;;;18.67;43.84
17521;BME280;8878;-33.370;-70.552;2023-04-26T11:13:20;92083.72;;;18.98;45.04
17521;BME280;8878;-33.370;-70.552;2023-04-26T11:15:53;92087.16;;;19.07;45.02
17521;BME280;8878;-33.370;-70.552;2023-04-26T11:18:24;92079.91;;;19.16;45.96
17521;BME280;8878;-33.370;-70.552;2023-04-26T11:20:53;92088.22;;;19.23;46.27
17521;BME280;8878;-33.370;-70.552;2023-04-26T11:23:23;92089.16;;;19.27;45.85
17521;BME280;8878;-33.370;-70.552;2023-04-26T11:25:57;92091.09;;;19.18;44.18
17521;BME280;8878;-33.370;-70.552;2023-04-26T11:28:28;92087.44;;;19.23;44.24
17521;BME280;8878;-33.370;-70.552;2023-04-26T11:30:58;92091.66;;;19.32;43.70
17521;BME280;8878;-33.370;-70.552;2023-04-26T11:33:36;92084.56;;;19.36;43.30
17521;BME280;8878;-33.370;-70.552;2023-04-26T11:36:07;92096.06;;;19.37;43.60
17521;BME280;8878;-33.370;-70.552;2023-04-26T11:38:37;92100.13;;;19.43;42.73
17521;BME280;8878;-33.370;-70.552;2023-04-26T11:41:09;92116.97;;;19.43;43.06
17521;BME280;8878;-33.370;-70.552;2023-04-26T11:43:38;92129.06;;;19.41;42.45
17521;BME280;8878;-33.370;-70.552;2023-04-26T11:46:08;92138.09;;;19.28;40.96
17521;BME280;8878;-33.370;-70.552;2023-04-26T11:48:38;92138.56;;;19.30;40.64
17521;BME280;8878;-33.370;-70.552;2023-04-26T11:51:08;92132.63;;;19.15;41.14
17521;BME280;8878;-33.370;-70.552;2023-04-26T11:53:38;92140.66;;;19.07;42.13
17521;BME280;8878;-33.370;-70.552;2023-04-26T11:56:17;92137.47;;;19.13;42.46
17521;BME280;8878;-33.370;-70.552;2023-04-26T11:58:48;92136.38;;;19.23;43.17
17521;BME280;8878;-33.370;-70.552;2023-04-26T12:01:21;92129.72;;;19.46;42.99
17521;BME280;8878;-33.370;-70.552;2023-04-26T12:03:52;92134.09;;;19.60;44.62
17521;BME280;8878;-33.370;-70.552;2023-04-26T12:06:29;92125.91;;;19.56;45.13
17521;BME280;8878;-33.370;-70.552;2023-04-26T12:09:01;92119.31;;;19.53;45.03
17521;BME280;8878;-33.370;-70.552;2023-04-26T12:11:34;92121.06;;;19.49;45.20
17521;BME280;8878;-33.370;-70.552;2023-04-26T12:14:04;92107.97;;;19.57;45.88
17521;BME280;8878;-33.370;-70.552;2023-04-26T12:16:36;92097.72;;;19.59;45.80
17521;BME280;8878;-33.370;-70.552;2023-04-26T12:19:06;92111.94;;;19.50;45.59
17521;BME280;8878;-33.370;-70.552;2023-04-26T12:21:43;92112.31;;;19.70;45.91
17521;BME280;8878;-33.370;-70.552;2023-04-26T12:24:26;92100.41;;;19.59;45.45
17521;BME280;8878;-33.370;-70.552;2023-04-26T12:27:01;92098.81;;;19.66;44.92
17521;BME280;8878;-33.370;-70.552;2023-04-26T12:29:51;92106.13;;;19.78;44.55
17521;BME280;8878;-33.370;-70.552;2023-04-26T12:32:20;92110.66;;;19.86;44.59
17521;BME280;8878;-33.370;-70.552;2023-04-26T12:34:52;92114.53;;;19.97;44.11
17521;BME280;8878;-33.370;-70.552;2023-04-26T12:37:22;92117.22;;;19.97;43.91
17521;BME280;8878;-33.370;-70.552;2023-04-26T12:39:51;92122.66;;;20.09;43.27
17521;BME280;8878;-33.370;-70.552;2023-04-26T12:42:22;92128.09;;;20.21;43.43
17521;BME280;8878;-33.370;-70.552;2023-04-26T12:44:52;92137.25;;;20.20;43.83
17521;BME280;8878;-33.370;-70.552;2023-04-26T12:47:21;92145.00;;;20.43;42.88
17521;BME280;8878;-33.370;-70.552;2023-04-26T12:49:50;92137.97;;;20.59;42.20
17521;BME280;8878;-33.370;-70.552;2023-04-26T12:52:20;92128.16;;;20.63;42.65
17521;BME280;8878;-33.370;-70.552;2023-04-26T12:54:49;92131.22;;;20.74;43.69
17521;BME280;8878;-33.370;-70.552;2023-04-26T12:57:21;92134.50;;;20.79;42.27
17521;BME280;8878;-33.370;-70.552;2023-04-26T12:59:50;92140.06;;;20.74;42.22
17521;BME280;8878;-33.370;-70.552;2023-04-26T13:02:20;92144.56;;;20.61;40.91